Latest Weather Observations for Outer Harbor (Black Pole)

IDS60901

Issued at 11:01 pm CST Monday 24 June 2019 (issued every 10 minutes, with the page automatically refreshed every 10 minutes)

About weather observations | Map of Adelaide area stations | Latest observations for Adelaide area | Other Formats
Station Details ID: 023052 Name: BLACK POLE Lat: -34.73 Lon: 138.47 Height: 6.27 m
Data from the previous 72 hours. | See also: Recent months for locations in South Australia
Date/Time
CST
Temp
°C
App
Temp
°C
Dew
Point
°C
Rel
Hum
%
Delta-T
°C
Wind Press
QNH
hPa
Press
MSL
hPa
Rain since
9am
mm
Dir  Spd
km/h
Gust
km/h
Spd
kts
Gust
kts
24/11:00pm - - - - - NE 19 20 10 11 - - -
24/10:30pm - - - - - NE 19 22 10 12 - - -
24/10:00pm - - - - - NE 17 20 9 11 - - -
24/09:30pm - - - - - NE 19 22 10 12 - - -
24/09:00pm - - - - - NE 20 24 11 13 - - -
24/08:30pm - - - - - NE 20 26 11 14 - - -
24/08:00pm - - - - - ENE 17 19 9 10 - - -
24/07:30pm - - - - - NE 11 13 6 7 - - -
24/07:00pm - - - - - NE 15 20 8 11 - - -
24/06:30pm - - - - - NE 17 19 9 10 - - -
24/06:00pm - - - - - NE 13 17 7 9 - - -
24/05:30pm - - - - - ENE 13 15 7 8 - - -
24/05:00pm - - - - - NNE 7 13 4 7 - - -
24/04:30pm - - - - - NNW 2 6 1 3 - - -
24/04:00pm - - - - - NE 11 13 6 7 - - -
24/03:30pm - - - - - NE 13 15 7 8 - - -
24/03:00pm - - - - - NNE 15 17 8 9 - - -
24/02:30pm - - - - - NNW 9 11 5 6 - - -
24/02:00pm - - - - - NW 9 11 5 6 - - -
24/01:30pm - - - - - NNW 7 9 4 5 - - -
24/01:00pm - - - - - N 9 11 5 6 - - -
24/12:30pm - - - - - NNW 4 9 2 5 - - -
24/12:00pm - - - - - NE 11 15 6 8 - - -
24/11:30am - - - - - NNE 11 13 6 7 - - -
24/11:00am - - - - - NNE 11 13 6 7 - - -
24/10:30am - - - - - NNE 13 17 7 9 - - -
24/10:00am - - - - - NE 13 15 7 8 - - -
24/09:30am - - - - - NE 11 13 6 7 - - -
24/09:00am - - - - - NNE 11 15 6 8 - - -
24/08:30am - - - - - N 13 17 7 9 - - -
24/08:00am - - - - - N 17 20 9 11 - - -
24/07:30am - - - - - NNE 20 28 11 15 - - -
24/07:00am - - - - - NNE 20 26 11 14 - - -
24/06:30am - - - - - NNE 19 22 10 12 - - -
24/06:00am - - - - - NE 20 26 11 14 - - -
24/05:30am - - - - - NNE 17 20 9 11 - - -
24/05:00am - - - - - N 17 22 9 12 - - -
24/04:30am - - - - - N 19 24 10 13 - - -
24/04:00am - - - - - N 13 17 7 9 - - -
24/03:30am - - - - - NNE 9 11 5 6 - - -
24/03:00am - - - - - NNE 13 15 7 8 - - -
24/02:30am - - - - - NE 17 20 9 11 - - -
24/02:00am - - - - - NE 19 20 10 11 - - -
24/01:30am - - - - - NE 19 20 10 11 - - -
24/01:00am - - - - - NE 19 22 10 12 - - -
24/12:30am - - - - - NE 19 22 10 12 - - -
24/12:00am - - - - - NE 19 22 10 12 - - -
 
Date/Time
CST
Temp
°C
App
Temp
°C
Dew
Point
°C
Rel
Hum
%
Delta-T
°C
Wind Press
QNH
hPa
Press
MSL
hPa
Rain since
9am
mm
Dir  Spd
km/h
Gust
km/h
Spd
kts
Gust
kts
23/11:30pm - - - - - NNE 15 17 8 9 - - -
23/11:00pm - - - - - NE 13 15 7 8 - - -
23/10:30pm - - - - - NE 9 11 5 6 - - -
23/10:00pm - - - - - ENE 11 15 6 8 - - -
23/09:30pm - - - - - ENE 13 17 7 9 - - -
23/09:00pm - - - - - ENE 11 13 6 7 - - -
23/08:30pm - - - - - NE 9 13 5 7 - - -
23/08:00pm - - - - - ENE 9 11 5 6 - - -
23/07:30pm - - - - - ENE 11 13 6 7 - - -
23/07:00pm - - - - - ENE 15 19 8 10 - - -
23/06:30pm - - - - - ENE 19 20 10 11 - - -
23/06:00pm - - - - - ENE 17 19 9 10 - - -
23/05:30pm - - - - - NE 13 17 7 9 - - -
23/05:00pm - - - - - NE 13 17 7 9 - - -
23/04:30pm - - - - - NE 15 17 8 9 - - -
23/04:00pm - - - - - ENE 13 20 7 11 - - -
23/03:30pm - - - - - NE 15 20 8 11 - - -
23/03:00pm - - - - - NE 9 13 5 7 - - -
23/02:30pm - - - - - NE 13 19 7 10 - - -
23/02:00pm - - - - - NNW 4 9 2 5 - - -
23/01:30pm - - - - - CALM 0 2 0 1 - - -
23/01:00pm - - - - - NNE 7 11 4 6 - - -
23/12:30pm - - - - - NE 11 13 6 7 - - -
23/12:00pm - - - - - NE 9 13 5 7 - - -
23/11:30am - - - - - N 6 9 3 5 - - -
23/11:00am - - - - - NNE 6 9 3 5 - - -
23/10:30am - - - - - NNE 11 13 6 7 - - -
23/10:00am - - - - - NNE 7 9 4 5 - - -
23/09:30am - - - - - NNE 9 11 5 6 - - -
23/09:00am - - - - - N 15 17 8 9 - - -
23/08:30am - - - - - N 11 15 6 8 - - -
23/08:00am - - - - - NNE 7 9 4 5 - - -
23/07:30am - - - - - N 9 11 5 6 - - -
23/07:00am - - - - - NNE 7 9 4 5 - - -
23/06:30am - - - - - N 6 9 3 5 - - -
23/06:00am - - - - - NNW 9 11 5 6 - - -
23/05:30am - - - - - N 7 11 4 6 - - -
23/05:00am - - - - - ENE 9 15 5 8 - - -
23/04:30am - - - - - E 7 11 4 6 - - -
23/04:00am - - - - - E 9 15 5 8 - - -
23/03:30am - - - - - ENE 7 11 4 6 - - -
23/03:00am - - - - - E 9 13 5 7 - - -
23/02:30am - - - - - ENE 11 15 6 8 - - -
23/02:00am - - - - - ESE 9 11 5 6 - - -
23/01:30am - - - - - ESE 11 13 6 7 - - -
23/01:00am - - - - - E 13 15 7 8 - - -
23/12:30am - - - - - ENE 13 15 7 8 - - -
23/12:00am - - - - - NE 9 13 5 7 - - -
 
Date/Time
CST
Temp
°C
App
Temp
°C
Dew
Point
°C
Rel
Hum
%
Delta-T
°C
Wind Press
QNH
hPa
Press
MSL
hPa
Rain since
9am
mm
Dir  Spd
km/h
Gust
km/h
Spd
kts
Gust
kts
22/11:30pm - - - - - NE 11 13 6 7 - - -
22/11:00pm - - - - - NE 11 13 6 7 - - -
22/10:30pm - - - - - NE 11 13 6 7 - - -
22/10:00pm - - - - - ENE 9 13 5 7 - - -
22/09:30pm - - - - - E 17 20 9 11 - - -
22/09:00pm - - - - - E 15 17 8 9 - - -
22/08:30pm - - - - - ENE 13 15 7 8 - - -
22/08:00pm - - - - - ENE 15 19 8 10 - - -
22/07:30pm - - - - - E 15 20 8 11 - - -
22/07:00pm - - - - - SSE 13 15 7 8 - - -
22/06:30pm - - - - - SSE 15 19 8 10 - - -
22/06:00pm - - - - - S 17 20 9 11 - - -
22/05:30pm - - - - - S 13 15 7 8 - - -
22/05:00pm - - - - - S 15 17 8 9 - - -
22/04:30pm - - - - - SSW 9 13 5 7 - - -
22/04:00pm - - - - - WSW 7 9 4 5 - - -
22/03:30pm - - - - - SW 7 9 4 5 - - -
22/03:00pm - - - - - NNW 2 7 1 4 - - -
22/02:30pm - - - - - NNW 2 2 1 1 - - -
22/02:00pm - - - - - NNW 4 7 2 4 - - -
22/01:30pm - - - - - N 4 9 2 5 - - -
22/01:00pm - - - - - NE 9 13 5 7 - - -
22/12:30pm - - - - - NNE 11 15 6 8 - - -
22/12:00pm - - - - - NE 13 17 7 9 - - -
22/11:30am - - - - - NE 17 20 9 11 - - -
22/11:00am - - - - - NNE 15 17 8 9 - - -
22/10:30am - - - - - NE 19 20 10 11 - - -
22/10:00am - - - - - NE 11 13 6 7 - - -
22/09:30am - - - - - NE 11 13 6 7 - - -
22/09:00am - - - - - NE 11 13 6 7 - - -
22/08:30am - - - - - NE 13 15 7 8 - - -
22/08:00am - - - - - NE 13 15 7 8 - - -
22/07:30am - - - - - NE 13 15 7 8 - - -
22/07:00am - - - - - NE 13 13 7 7 - - -
22/06:30am - - - - - NE 11 11 6 6 - - -
22/06:00am - - - - - NE 9 11 5 6 - - -
22/05:30am - - - - - NNE 9 11 5 6 - - -
22/05:00am - - - - - NE 11 13 6 7 - - -
22/04:30am - - - - - ENE 11 13 6 7 - - -
22/04:00am - - - - - ENE 11 13 6 7 - - -
22/03:30am - - - - - ENE 11 13 6 7 - - -
22/03:00am - - - - - ENE 13 17 7 9 - - -
22/02:30am - - - - - E 11 15 6 8 - - -
22/02:00am - - - - - ENE 11 13 6 7 - - -
22/01:30am - - - - - ENE 11 13 6 7 - - -
22/01:00am - - - - - ENE 9 9 5 5 - - -
22/12:30am - - - - - NE 7 9 4 5 - - -
22/12:00am - - - - - NNE 7 11 4 6 - - -
 
Date/Time
CST
Temp
°C
App
Temp
°C
Dew
Point
°C
Rel
Hum
%
Delta-T
°C
Wind Press
QNH
hPa
Press
MSL
hPa
Rain since
9am
mm
Dir  Spd
km/h
Gust
km/h
Spd
kts
Gust
kts
21/11:30pm - - - - - ENE 15 19 8 10 - - -

Latest Capital City Observations: Canberra | Sydney | Melbourne | Brisbane | Adelaide | Perth | Hobart | Darwin

Other formats

Comma delimited format used in spreadsheet applications
http://www.bom.gov.au/fwo/IDS60901/IDS60901.95675.axf

JavaScript Object Notation format (JSON) in row-major order
http://www.bom.gov.au/fwo/IDS60901/IDS60901.95675.json

Data quality

Most of these data are generated automatically and are frequently updated. Quality checks on data are not normally performed. It is possible for incorrect values to appear. Refer to information at About Latest Weather Observations and please check the disclaimer before using these data.